Time;durP1;ratioP1;P1;durP2;ratioP2;P2;SDS_P1;SDS_P2;PMS_P1;PMS_P2;Temp;Humidity;BMP_temperature;BMP_pressure;BME280_temperature;BME280_humidity;BME280_pressure;Samples;Min_cycle;Max_cycle;Signal;HPM_P1;HPM_P2
2023/03/09 00:01:34;;;;;;;3.80;1.98;;;11.90;71.90;;;;;;5052862;28;20044;-62
2023/03/09 00:04:01;;;;;;;2.03;1.70;;;11.90;72.00;;;;;;5062174;28;20033;-62
2023/03/09 00:06:27;;;;;;;4.32;1.60;;;11.90;72.00;;;;;;5054610;28;20117;-61
2023/03/09 00:08:53;;;;;;;4.60;1.83;;;11.90;72.10;;;;;;5061143;28;20098;-61
2023/03/09 00:11:19;;;;;;;3.70;1.52;;;11.90;72.20;;;;;;5076060;28;20028;-62
2023/03/09 00:13:46;;;;;;;3.72;1.65;;;11.90;72.10;;;;;;5057769;28;20032;-62
2023/03/09 00:16:15;;;;;;;3.33;1.50;;;11.90;72.00;;;;;;5073917;28;20028;-63
2023/03/09 00:18:41;;;;;;;2.58;1.50;;;11.90;72.20;;;;;;5057368;28;20467;-62
2023/03/09 00:21:07;;;;;;;1.77;1.48;;;12.00;72.10;;;;;;5063570;28;20041;-62
2023/03/09 00:23:36;;;;;;;3.65;1.77;;;12.00;72.30;;;;;;5067073;28;20021;-62
2023/03/09 00:26:06;;;;;;;4.50;1.77;;;11.90;71.90;;;;;;5059903;28;20050;-63
2023/03/09 00:28:32;;;;;;;7.07;2.20;;;11.90;72.40;;;;;;5056930;28;20033;-64
2023/03/09 00:31:03;;;;;;;3.33;1.85;;;11.90;71.90;;;;;;5059078;28;20441;-62
2023/03/09 00:33:29;;;;;;;4.22;2.00;;;11.90;72.20;;;;;;5056503;28;20083;-63
2023/03/09 00:35:55;;;;;;;2.47;2.05;;;11.90;72.20;;;;;;5060349;28;20137;-62
2023/03/09 00:38:20;;;;;;;4.25;1.80;;;11.90;72.30;;;;;;5063285;28;20016;-63
2023/03/09 00:40:46;;;;;;;5.00;1.67;;;11.90;72.40;;;;;;5068184;28;20029;-62
2023/03/09 00:43:11;;;;;;;2.63;1.70;;;11.90;72.00;;;;;;5062449;28;20021;-62
2023/03/09 00:45:38;;;;;;;3.00;1.40;;;11.90;72.40;;;;;;5057527;28;20060;-63
2023/03/09 00:48:04;;;;;;;7.70;1.90;;;12.00;72.30;;;;;;5057637;28;20044;-62
2023/03/09 00:50:30;;;;;;;4.20;2.00;;;11.90;72.20;;;;;;5060558;28;20051;-63
2023/03/09 00:52:55;;;;;;;3.70;1.92;;;12.00;72.30;;;;;;5064250;28;20040;-63
2023/03/09 00:55:21;;;;;;;3.92;1.75;;;12.00;72.30;;;;;;5060225;28;20025;-62
2023/03/09 00:57:47;;;;;;;3.22;1.67;;;12.00;72.90;;;;;;5061630;28;20032;-63
2023/03/09 01:00:13;;;;;;;2.65;1.95;;;12.00;72.30;;;;;;5064071;28;20032;-63
2023/03/09 01:02:38;;;;;;;2.17;1.65;;;12.00;72.30;;;;;;5069929;28;20044;-64
2023/03/09 01:05:05;;;;;;;9.18;1.80;;;12.00;72.40;;;;;;5068670;28;20036;-63
2023/03/09 01:07:32;;;;;;;4.90;1.58;;;12.00;72.90;;;;;;5061168;28;20079;-63
2023/03/09 01:09:58;;;;;;;2.35;1.27;;;12.00;72.70;;;;;;5068166;28;20040;-63
2023/03/09 01:12:23;;;;;;;3.47;1.58;;;12.10;72.60;;;;;;5059065;28;20356;-63
2023/03/09 01:14:54;;;;;;;2.97;1.52;;;12.10;72.60;;;;;;5055950;28;20033;-62
2023/03/09 01:17:19;;;;;;;2.20;1.23;;;12.10;72.70;;;;;;5059637;28;20055;-63
2023/03/09 01:19:45;;;;;;;1.75;1.40;;;12.20;72.60;;;;;;5063971;28;20033;-63
2023/03/09 01:22:11;;;;;;;2.05;1.00;;;12.10;73.20;;;;;;5059341;28;20017;-62
2023/03/09 01:24:36;;;;;;;2.30;0.80;;;12.20;73.00;;;;;;5062819;28;20569;-64
2023/03/09 01:27:02;;;;;;;1.17;0.60;;;12.20;72.10;;;;;;5065443;28;20028;-63
2023/03/09 01:29:28;;;;;;;1.88;0.70;;;12.20;71.30;;;;;;5062410;28;20080;-62
2023/03/09 01:31:53;;;;;;;2.80;0.65;;;12.10;70.80;;;;;;5060093;28;20478;-63
2023/03/09 01:34:19;;;;;;;1.73;0.80;;;12.10;70.60;;;;;;5072768;28;20082;-62
2023/03/09 01:36:45;;;;;;;0.50;0.50;;;12.10;70.60;;;;;;5062941;28;20235;-63
2023/03/09 01:39:11;;;;;;;5.03;0.75;;;12.10;70.50;;;;;;5061020;28;20036;-63
2023/03/09 01:41:36;;;;;;;1.55;0.68;;;12.10;70.50;;;;;;5066155;28;20448;-62
2023/03/09 01:44:03;;;;;;;1.85;0.55;;;12.10;70.50;;;;;;5062212;28;20052;-62
2023/03/09 01:46:33;;;;;;;1.15;0.60;;;12.00;70.30;;;;;;5053790;28;20369;-62
2023/03/09 01:49:27;;;;;;;0.40;0.40;;;12.00;70.30;;;;;;5055156;28;20021;-62
2023/03/09 01:52:14;;;;;;;0.77;0.50;;;12.00;70.40;;;;;;5062504;28;20036;-62
2023/03/09 01:54:50;;;;;;;0.40;0.40;;;12.00;70.40;;;;;;5056142;28;20032;-62
2023/03/09 01:57:19;;;;;;;0.40;0.40;;;12.00;70.40;;;;;;5069064;28;20036;-62
2023/03/09 01:59:47;;;;;;;0.75;0.50;;;11.90;70.40;;;;;;5053595;28;20025;-62
2023/03/09 02:02:15;;;;;;;0.55;0.50;;;11.90;70.30;;;;;;5053775;28;20041;-62
2023/03/09 02:04:45;;;;;;;1.33;0.60;;;11.90;70.40;;;;;;5059626;28;20035;-63
2023/03/09 02:07:13;;;;;;;1.23;0.60;;;11.90;70.50;;;;;;5054139;28;20025;-62
2023/03/09 02:09:46;;;;;;;0.80;0.60;;;11.90;70.60;;;;;;5062663;28;20028;-62
2023/03/09 02:12:17;;;;;;;4.43;0.80;;;11.90;70.70;;;;;;5057544;28;20020;-62
2023/03/09 02:14:42;;;;;;;0.88;0.52;;;11.90;70.80;;;;;;5053542;28;20044;-62
2023/03/09 02:17:12;;;;;;;1.73;0.75;;;11.80;70.50;;;;;;5058599;28;20028;-62
2023/03/09 02:19:52;;;;;;;0.50;0.50;;;11.80;70.50;;;;;;5052847;28;20032;-62
2023/03/09 02:22:18;;;;;;;1.10;0.60;;;11.80;70.50;;;;;;5065633;28;20032;-61
2023/03/09 02:24:49;;;;;;;1.45;0.60;;;11.80;69.60;;;;;;5057590;28;20094;-61
2023/03/09 02:27:16;;;;;;;1.30;0.63;;;11.80;69.70;;;;;;5064010;28;20029;-61
2023/03/09 02:29:42;;;;;;;1.50;0.60;;;11.80;69.60;;;;;;5070564;28;20016;-61
2023/03/09 02:32:08;;;;;;;0.98;0.65;;;11.80;69.40;;;;;;5057426;28;20143;-61
2023/03/09 02:34:33;;;;;;;2.60;0.50;;;11.80;69.40;;;;;;5059868;28;20034;-62
2023/03/09 02:36:59;;;;;;;0.60;0.60;;;11.80;69.30;;;;;;5062463;28;20457;-63
2023/03/09 02:39:47;;;;;;;1.15;0.60;;;11.80;69.20;;;;;;5058853;28;20025;-62
2023/03/09 02:42:13;;;;;;;0.57;0.57;;;11.80;69.20;;;;;;5065849;28;20088;-63
2023/03/09 02:44:39;;;;;;;3.55;0.70;;;11.80;69.00;;;;;;5056541;28;20056;-62
2023/03/09 02:47:18;;;;;;;0.50;0.50;;;11.80;69.00;;;;;;5058991;28;20025;-62
2023/03/09 02:49:44;;;;;;;1.55;0.57;;;11.70;69.00;;;;;;5057658;28;20033;-62
2023/03/09 02:52:10;;;;;;;0.80;0.55;;;11.70;68.70;;;;;;5047794;28;20020;-62
2023/03/09 02:54:36;;;;;;;0.50;0.50;;;11.70;68.70;;;;;;5070880;28;20025;-62
2023/03/09 02:57:02;;;;;;;0.60;0.60;;;11.70;68.80;;;;;;5054039;28;20051;-62
2023/03/09 02:59:27;;;;;;;3.13;0.70;;;11.60;68.60;;;;;;5067161;28;20405;-63
2023/03/09 03:01:53;;;;;;;0.60;0.60;;;11.60;68.50;;;;;;5063882;28;20035;-62
2023/03/09 03:04:19;;;;;;;1.55;0.52;;;11.60;68.40;;;;;;5059938;28;20031;-62
2023/03/09 03:06:44;;;;;;;0.47;0.47;;;11.60;68.50;;;;;;5060621;28;20028;-62
2023/03/09 03:09:10;;;;;;;0.77;0.50;;;11.50;68.50;;;;;;5062196;28;20040;-61
2023/03/09 03:11:35;;;;;;;0.90;0.60;;;11.50;68.60;;;;;;5060240;28;20084;-61
2023/03/09 03:14:01;;;;;;;0.52;0.50;;;11.50;68.50;;;;;;5060841;28;20055;-61
2023/03/09 03:16:27;;;;;;;1.23;0.50;;;11.50;68.60;;;;;;5055930;28;20072;-62
2023/03/09 03:18:53;;;;;;;0.40;0.40;;;11.40;68.80;;;;;;5058234;28;20032;-61
2023/03/09 03:21:18;;;;;;;0.82;0.60;;;11.40;68.70;;;;;;5052412;28;20036;-61
2023/03/09 03:23:44;;;;;;;1.17;0.70;;;11.40;68.80;;;;;;5064006;28;20111;-61
2023/03/09 03:26:10;;;;;;;1.10;0.55;;;11.30;68.70;;;;;;5056525;28;20029;-61
2023/03/09 03:28:36;;;;;;;0.80;0.80;;;11.30;68.80;;;;;;5058092;28;20045;-62
2023/03/09 03:31:03;;;;;;;0.68;0.68;;;11.30;68.90;;;;;;5058127;28;20087;-61
2023/03/09 03:33:29;;;;;;;0.50;0.50;;;11.30;69.00;;;;;;5062897;28;20048;-61
2023/03/09 03:35:56;;;;;;;0.50;0.50;;;11.20;69.00;;;;;;5062916;28;22399;-61
2023/03/09 03:38:22;;;;;;;1.42;0.70;;;11.20;69.10;;;;;;5066044;28;20017;-61
2023/03/09 03:40:48;;;;;;;0.88;0.60;;;11.20;69.10;;;;;;5058336;28;20109;-62
2023/03/09 03:43:13;;;;;;;1.77;1.40;;;11.20;69.50;;;;;;5065961;28;20052;-63
2023/03/09 03:45:39;;;;;;;1.83;0.85;;;11.20;69.40;;;;;;5059028;28;20064;-63
2023/03/09 03:48:05;;;;;;;0.60;0.60;;;11.20;69.50;;;;;;5065237;28;20036;-62
2023/03/09 03:50:30;;;;;;;0.70;0.70;;;11.20;69.50;;;;;;5061247;28;20086;-63
2023/03/09 03:52:56;;;;;;;0.60;0.60;;;11.20;69.50;;;;;;5058210;28;20029;-62
2023/03/09 03:55:22;;;;;;;0.85;0.50;;;11.10;69.60;;;;;;5060966;28;20063;-62
2023/03/09 03:57:48;;;;;;;0.50;0.50;;;11.10;69.60;;;;;;5062380;28;20037;-63
2023/03/09 04:00:14;;;;;;;0.60;0.60;;;11.10;69.80;;;;;;5067509;28;20025;-62
2023/03/09 04:02:40;;;;;;;2.08;0.60;;;11.10;69.80;;;;;;5061867;28;20022;-63
2023/03/09 04:05:05;;;;;;;0.68;0.60;;;11.10;69.80;;;;;;5059880;28;20025;-62
2023/03/09 04:07:31;;;;;;;2.17;0.70;;;11.10;70.00;;;;;;5062419;28;20013;-61
2023/03/09 04:09:57;;;;;;;0.85;0.60;;;11.10;70.10;;;;;;5063101;28;20035;-61
2023/03/09 04:12:23;;;;;;;0.65;0.60;;;11.10;70.40;;;;;;5059254;28;20060;-61
2023/03/09 04:14:48;;;;;;;1.75;0.80;;;11.10;70.50;;;;;;5065194;28;20021;-62
2023/03/09 04:17:14;;;;;;;1.70;0.80;;;11.10;70.40;;;;;;5054344;28;20140;-61
2023/03/09 04:19:40;;;;;;;0.55;0.55;;;11.10;70.50;;;;;;5064035;28;20029;-63
2023/03/09 04:22:07;;;;;;;0.68;0.57;;;11.10;70.70;;;;;;5066731;28;20017;-61
2023/03/09 04:24:32;;;;;;;0.85;0.80;;;11.10;70.50;;;;;;5066511;28;20029;-61
2023/03/09 04:26:58;;;;;;;1.77;0.82;;;11.20;70.40;;;;;;5066863;28;20521;-61
2023/03/09 04:29:24;;;;;;;0.60;0.60;;;11.20;70.30;;;;;;5072134;28;20066;-60
2023/03/09 04:31:50;;;;;;;2.28;0.73;;;11.30;70.20;;;;;;5068492;28;20032;-61
2023/03/09 04:34:15;;;;;;;1.38;0.60;;;11.30;70.00;;;;;;5065712;28;20100;-62
2023/03/09 04:36:41;;;;;;;0.77;0.52;;;11.40;70.60;;;;;;5065284;28;20044;-62
2023/03/09 04:39:07;;;;;;;0.70;0.70;;;11.40;69.60;;;;;;5063847;28;20024;-61
2023/03/09 04:41:33;;;;;;;1.38;0.60;;;11.40;69.40;;;;;;5068379;28;20032;-63
2023/03/09 04:43:58;;;;;;;0.55;0.55;;;11.40;69.30;;;;;;5065969;28;20084;-61
2023/03/09 04:46:24;;;;;;;1.25;0.60;;;11.40;69.20;;;;;;5066596;28;20025;-62
2023/03/09 04:48:50;;;;;;;1.98;0.70;;;11.40;69.50;;;;;;5069330;28;20028;-63
2023/03/09 04:51:16;;;;;;;0.93;0.60;;;11.40;69.40;;;;;;5058547;28;20109;-63
2023/03/09 04:53:41;;;;;;;0.63;0.60;;;11.30;69.30;;;;;;5068679;28;20032;-62
2023/03/09 04:56:07;;;;;;;0.85;0.60;;;11.30;69.30;;;;;;5062689;28;20037;-63
2023/03/09 04:58:33;;;;;;;1.23;0.73;;;11.30;69.40;;;;;;5062165;28;20024;-62
2023/03/09 05:01:00;;;;;;;0.50;0.50;;;11.30;69.40;;;;;;5067394;28;20036;-64
2023/03/09 05:03:27;;;;;;;1.05;0.65;;;11.20;69.70;;;;;;5074740;28;20028;-64
2023/03/09 05:05:52;;;;;;;1.02;0.60;;;11.20;69.50;;;;;;5055815;28;20033;-63
2023/03/09 05:08:18;;;;;;;1.60;0.70;;;11.20;69.70;;;;;;5069338;28;20060;-62
2023/03/09 05:10:44;;;;;;;2.15;0.80;;;11.20;69.70;;;;;;5064702;28;20082;-61
2023/03/09 05:13:09;;;;;;;2.08;0.77;;;11.20;69.70;;;;;;5068037;28;20029;-62
2023/03/09 05:15:39;;;;;;;2.35;0.88;;;11.10;69.70;;;;;;5065914;28;20033;-61
2023/03/09 05:18:04;;;;;;;6.07;1.08;;;11.10;69.90;;;;;;5069924;28;20012;-62
2023/03/09 05:20:31;;;;;;;1.52;0.90;;;11.10;69.80;;;;;;5067136;28;20030;-60
2023/03/09 05:22:57;;;;;;;3.78;1.23;;;11.10;69.80;;;;;;5068876;28;20066;-61
2023/03/09 05:25:23;;;;;;;3.70;1.30;;;11.10;69.70;;;;;;5059306;28;20087;-62
2023/03/09 05:27:49;;;;;;;3.60;1.20;;;11.00;69.80;;;;;;5060438;28;20036;-61
2023/03/09 05:30:15;;;;;;;3.97;1.20;;;11.00;69.60;;;;;;5066221;28;20016;-61
2023/03/09 05:32:41;;;;;;;3.03;1.17;;;11.00;69.50;;;;;;5059245;28;20057;-61
2023/03/09 05:35:07;;;;;;;3.42;1.00;;;11.00;69.40;;;;;;5072530;28;20040;-61
2023/03/09 05:37:34;;;;;;;9.43;1.20;;;11.00;69.40;;;;;;5064759;28;20059;-62
2023/03/09 05:39:59;;;;;;;5.75;1.80;;;11.00;69.30;;;;;;5067994;28;20021;-62
2023/03/09 05:42:25;;;;;;;3.17;1.10;;;11.00;69.30;;;;;;5068943;28;20079;-61
2023/03/09 05:44:51;;;;;;;5.18;1.40;;;11.00;69.20;;;;;;5065680;28;20044;-60
2023/03/09 05:47:16;;;;;;;6.72;2.05;;;10.90;69.20;;;;;;5070349;28;20028;-62
2023/03/09 05:49:42;;;;;;;6.20;1.55;;;10.90;69.20;;;;;;5063617;28;20459;-61
2023/03/09 05:52:08;;;;;;;3.55;1.40;;;11.00;69.20;;;;;;5068833;28;20502;-61
2023/03/09 05:54:34;;;;;;;7.32;1.65;;;10.90;69.20;;;;;;5068844;28;20058;-61
2023/03/09 05:56:59;;;;;;;8.07;1.75;;;10.90;69.20;;;;;;5065384;28;20025;-61
2023/03/09 05:59:25;;;;;;;9.82;1.70;;;10.90;69.10;;;;;;5060732;28;20141;-61
2023/03/09 06:01:51;;;;;;;7.57;1.40;;;10.90;69.10;;;;;;5062368;28;20025;-61
2023/03/09 06:04:16;;;;;;;9.20;1.38;;;10.90;69.00;;;;;;5062458;28;20025;-62
2023/03/09 06:06:42;;;;;;;5.70;1.52;;;10.90;69.00;;;;;;5066035;28;20111;-62
2023/03/09 06:09:08;;;;;;;8.85;1.65;;;10.80;69.00;;;;;;5065447;28;20025;-63
2023/03/09 06:11:33;;;;;;;7.38;1.80;;;10.90;69.00;;;;;;5059291;28;20021;-60
2023/03/09 06:13:59;;;;;;;11.00;1.73;;;10.80;68.90;;;;;;5065913;28;20025;-62
2023/03/09 06:16:26;;;;;;;7.70;1.40;;;10.80;69.00;;;;;;5063130;28;20041;-63
2023/03/09 06:18:55;;;;;;;10.57;1.77;;;10.80;68.90;;;;;;5060173;28;20635;-61
2023/03/09 06:21:20;;;;;;;6.75;1.73;;;10.80;68.90;;;;;;5069842;28;20036;-62
2023/03/09 06:23:46;;;;;;;7.20;1.77;;;10.80;68.80;;;;;;5065188;28;20107;-61
2023/03/09 06:26:12;;;;;;;8.10;2.00;;;10.80;68.70;;;;;;5062553;28;20040;-61
2023/03/09 06:28:38;;;;;;;7.60;2.08;;;10.80;68.70;;;;;;5063764;28;20036;-62
2023/03/09 06:31:11;;;;;;;6.93;1.40;;;10.80;68.70;;;;;;5070660;28;20028;-61
2023/03/09 06:33:38;;;;;;;7.25;1.52;;;10.90;68.70;;;;;;5065118;28;20053;-62
2023/03/09 06:36:04;;;;;;;5.75;1.77;;;10.80;68.60;;;;;;5058297;28;20040;-62
2023/03/09 06:38:30;;;;;;;6.72;1.83;;;10.90;68.60;;;;;;5062305;28;20032;-61
2023/03/09 06:40:56;;;;;;;7.25;1.55;;;10.80;68.50;;;;;;5063725;28;20030;-62
2023/03/09 06:43:22;;;;;;;9.40;1.63;;;10.80;68.50;;;;;;5070723;28;20107;-61
2023/03/09 06:45:49;;;;;;;6.68;1.42;;;10.80;68.50;;;;;;5056697;28;20028;-62
2023/03/09 06:48:15;;;;;;;6.85;1.42;;;10.80;68.60;;;;;;5063450;28;20108;-62
2023/03/09 06:50:41;;;;;;;9.05;1.67;;;10.80;68.70;;;;;;5061430;28;20052;-61
2023/03/09 06:53:06;;;;;;;8.18;1.63;;;10.80;68.60;;;;;;5062577;28;20021;-61
2023/03/09 06:55:32;;;;;;;11.07;2.20;;;10.80;68.60;;;;;;5076320;28;20033;-62
2023/03/09 06:57:58;;;;;;;6.50;1.65;;;10.80;68.70;;;;;;5066803;28;20025;-61
2023/03/09 07:00:24;;;;;;;8.48;1.70;;;10.80;68.80;;;;;;5061152;28;20032;-62
2023/03/09 07:02:49;;;;;;;6.80;1.95;;;10.90;69.00;;;;;;5068202;28;20033;-61
2023/03/09 07:05:15;;;;;;;8.15;2.00;;;10.90;69.00;;;;;;5060325;28;20059;-61
2023/03/09 07:07:42;;;;;;;7.07;1.67;;;11.00;69.00;;;;;;5065114;28;20029;-61
2023/03/09 07:10:09;;;;;;;8.73;1.70;;;11.00;69.00;;;;;;5065707;28;20024;-61
2023/03/09 07:12:35;;;;;;;12.40;2.33;;;11.10;69.00;;;;;;5059474;28;20032;-61
2023/03/09 07:15:00;;;;;;;6.63;1.73;;;11.20;68.80;;;;;;5058119;28;20025;-62
2023/03/09 07:17:26;;;;;;;10.68;1.90;;;11.20;68.70;;;;;;5056267;28;20043;-62
2023/03/09 07:19:52;;;;;;;7.63;1.75;;;11.30;68.70;;;;;;5066842;28;20483;-61
2023/03/09 07:22:18;;;;;;;8.02;1.92;;;11.40;68.60;;;;;;5052276;28;20029;-62
2023/03/09 07:24:44;;;;;;;10.27;1.75;;;11.50;68.40;;;;;;5060199;28;20088;-61
2023/03/09 07:27:09;;;;;;;8.13;1.92;;;11.50;68.30;;;;;;5052449;28;20045;-63
2023/03/09 07:29:38;;;;;;;7.28;1.42;;;11.60;68.30;;;;;;5065992;28;20344;-62
2023/03/09 07:32:04;;;;;;;7.47;1.90;;;11.70;68.10;;;;;;5063534;28;20041;-62
2023/03/09 07:34:32;;;;;;;7.80;1.70;;;11.80;67.80;;;;;;5063257;28;20092;-62
2023/03/09 07:36:58;;;;;;;10.80;2.33;;;11.80;67.20;;;;;;5059727;28;20100;-62
2023/03/09 07:39:24;;;;;;;9.90;1.70;;;11.90;67.30;;;;;;5060282;28;20045;-62
2023/03/09 07:41:49;;;;;;;11.18;1.95;;;11.90;67.20;;;;;;5056867;28;20435;-61
2023/03/09 07:44:15;;;;;;;5.80;1.52;;;12.00;67.10;;;;;;5056214;28;20032;-61
2023/03/09 07:46:40;;;;;;;9.88;1.58;;;12.10;67.00;;;;;;5061880;28;20483;-62
2023/03/09 07:49:06;;;;;;;7.55;1.55;;;12.10;66.90;;;;;;5055912;28;20051;-63
2023/03/09 07:51:32;;;;;;;8.98;1.83;;;12.20;66.60;;;;;;5062412;28;20115;-61
2023/03/09 07:53:59;;;;;;;4.95;1.50;;;12.30;66.50;;;;;;5065039;28;20451;-61
2023/03/09 07:56:25;;;;;;;8.35;1.55;;;12.30;66.30;;;;;;5062235;28;20135;-62
2023/03/09 07:58:52;;;;;;;8.90;1.65;;;12.40;66.00;;;;;;5058813;28;20025;-62
2023/03/09 08:01:18;;;;;;;8.95;1.75;;;12.50;65.80;;;;;;5058013;28;20024;-61
2023/03/09 08:03:45;;;;;;;7.15;1.35;;;12.50;65.40;;;;;;5063943;28;20169;-63
2023/03/09 08:06:12;;;;;;;6.03;1.40;;;12.60;65.40;;;;;;5071363;28;20032;-61
2023/03/09 08:08:38;;;;;;;4.85;1.33;;;12.60;65.20;;;;;;5058565;28;20692;-61
2023/03/09 08:11:05;;;;;;;4.80;1.10;;;12.70;65.20;;;;;;5068916;28;20032;-61
2023/03/09 08:13:31;;;;;;;6.75;1.67;;;12.70;65.10;;;;;;5066583;28;20020;-61
2023/03/09 08:16:02;;;;;;;6.32;1.40;;;12.80;64.50;;;;;;5068854;28;20483;-61
2023/03/09 08:18:28;;;;;;;6.85;1.60;;;12.90;64.00;;;;;;5062351;28;20040;-61
2023/03/09 08:20:55;;;;;;;4.28;1.38;;;12.90;63.90;;;;;;5074508;28;20021;-62
2023/03/09 08:23:20;;;;;;;5.05;1.60;;;13.00;63.60;;;;;;5067747;28;20021;-62
2023/03/09 08:25:53;;;;;;;6.97;1.45;;;13.10;64.00;;;;;;5065239;28;20051;-61
2023/03/09 08:28:19;;;;;;;5.07;1.70;;;13.20;62.80;;;;;;5062876;28;20017;-64
2023/03/09 08:30:45;;;;;;;7.05;1.50;;;13.20;63.10;;;;;;5071305;28;20025;-63
2023/03/09 08:33:11;;;;;;;8.23;1.50;;;13.40;63.10;;;;;;5063092;28;20057;-61
2023/03/09 08:35:37;;;;;;;7.05;1.58;;;13.50;62.20;;;;;;5062964;28;20028;-60
2023/03/09 08:38:02;;;;;;;6.20;1.45;;;13.50;61.50;;;;;;5067276;28;20232;-61
2023/03/09 08:40:28;;;;;;;3.95;1.23;;;13.60;61.50;;;;;;5065392;28;20024;-61
2023/03/09 08:42:54;;;;;;;2.72;1.10;;;13.70;61.80;;;;;;5067504;28;20036;-63
2023/03/09 08:45:20;;;;;;;4.95;1.45;;;13.80;61.60;;;;;;5076442;28;20020;-62
2023/03/09 08:47:46;;;;;;;5.63;1.10;;;13.90;60.90;;;;;;5069023;28;20025;-62
2023/03/09 08:50:12;;;;;;;3.85;1.33;;;14.00;60.80;;;;;;5071127;28;20016;-63
2023/03/09 08:52:39;;;;;;;3.80;1.20;;;14.10;60.60;;;;;;5067875;28;20432;-62
2023/03/09 08:55:07;;;;;;;6.28;1.10;;;14.20;60.00;;;;;;5073129;28;20107;-62
2023/03/09 08:57:33;;;;;;;2.85;1.00;;;14.30;59.70;;;;;;5060752;28;20040;-62
2023/03/09 08:59:59;;;;;;;6.82;1.20;;;14.40;59.80;;;;;;5065201;28;20032;-62
2023/03/09 09:02:25;;;;;;;4.35;1.13;;;14.50;59.30;;;;;;5065013;28;20021;-62
2023/03/09 09:04:51;;;;;;;3.53;1.02;;;14.60;58.70;;;;;;5068065;28;20110;-63
2023/03/09 09:07:18;;;;;;;4.10;1.13;;;14.70;58.70;;;;;;5065111;28;20039;-63
2023/03/09 09:09:44;;;;;;;6.63;1.25;;;14.70;58.00;;;;;;5065799;28;20055;-62
2023/03/09 09:12:10;;;;;;;3.35;0.95;;;14.70;57.60;;;;;;5069204;28;20021;-61
2023/03/09 09:14:38;;;;;;;4.65;1.20;;;14.60;57.60;;;;;;5069297;28;20025;-61
2023/03/09 09:17:06;;;;;;;4.40;1.23;;;14.60;57.20;;;;;;5057752;28;20159;-61
2023/03/09 09:19:32;;;;;;;5.07;1.02;;;14.50;57.30;;;;;;5066880;28;20035;-63
2023/03/09 09:21:59;;;;;;;7.20;1.33;;;14.50;57.10;;;;;;5075958;28;20096;-62
2023/03/09 09:24:26;;;;;;;10.30;1.27;;;14.50;57.60;;;;;;5066949;28;20043;-61
2023/03/09 09:26:55;;;;;;;6.60;1.48;;;14.50;57.50;;;;;;5061498;28;20511;-62
2023/03/09 09:29:20;;;;;;;4.43;1.20;;;14.50;57.40;;;;;;5055049;28;20021;-62
2023/03/09 09:31:48;;;;;;;3.72;1.15;;;14.50;56.90;;;;;;5069658;28;20032;-63
2023/03/09 09:34:13;;;;;;;4.72;1.48;;;14.50;56.80;;;;;;5068148;28;20031;-62
2023/03/09 09:36:39;;;;;;;5.55;1.63;;;14.50;56.40;;;;;;5074855;28;20081;-62
2023/03/09 09:39:06;;;;;;;3.22;1.10;;;14.50;56.30;;;;;;5062885;28;20025;-63
2023/03/09 09:41:45;;;;;;;4.53;1.33;;;14.50;56.40;;;;;;5065235;28;20016;-63
2023/03/09 09:44:22;;;;;;;6.57;1.40;;;14.50;56.30;;;;;;5062458;28;20059;-63
2023/03/09 09:46:50;;;;;;;7.18;1.35;;;14.50;56.70;;;;;;5076934;28;20046;-63
2023/03/09 09:49:22;;;;;;;4.90;1.00;;;14.60;56.80;;;;;;5070495;28;20387;-62
2023/03/09 09:51:53;;;;;;;5.97;1.00;;;14.70;56.90;;;;;;5069362;28;20029;-62
2023/03/09 09:54:22;;;;;;;3.75;1.20;;;14.80;56.20;;;;;;5065136;28;20096;-63
2023/03/09 09:56:51;;;;;;;3.72;1.02;;;14.80;56.10;;;;;;5065382;28;20040;-63
2023/03/09 09:59:41;;;;;;;3.65;1.05;;;14.90;55.70;;;;;;5066293;28;20028;-63
2023/03/09 10:02:09;;;;;;;3.90;0.90;;;14.90;55.30;;;;;;5060045;28;20665;-63
2023/03/09 10:04:46;;;;;;;4.07;1.13;;;14.90;55.30;;;;;;5063008;28;20021;-63
2023/03/09 10:07:18;;;;;;;3.40;0.95;;;14.90;55.20;;;;;;5062922;28;20304;-63
2023/03/09 10:09:50;;;;;;;2.90;0.90;;;14.90;55.50;;;;;;5069487;28;20047;-63
2023/03/09 10:12:19;;;;;;;1.85;0.75;;;14.90;55.70;;;;;;5061655;28;20029;-62
2023/03/09 10:14:49;;;;;;;3.60;0.70;;;14.90;56.00;;;;;;5054961;28;20028;-61
2023/03/09 10:17:18;;;;;;;1.70;0.77;;;14.90;55.20;;;;;;5070536;28;20033;-62
2023/03/09 10:19:46;;;;;;;1.77;0.70;;;15.00;55.40;;;;;;5051736;28;20392;-64
2023/03/09 10:22:16;;;;;;;1.67;0.85;;;15.00;55.40;;;;;;5065707;28;20017;-63
2023/03/09 10:24:59;;;;;;;1.80;0.80;;;15.00;55.40;;;;;;5057921;28;20021;-63
2023/03/09 10:27:51;;;;;;;2.38;0.80;;;15.00;55.30;;;;;;5069480;28;20027;-62
2023/03/09 10:30:35;;;;;;;3.45;1.27;;;15.00;54.90;;;;;;5048246;28;20033;-63
2023/03/09 10:33:17;;;;;;;6.78;1.35;;;15.00;55.00;;;;;;5057146;28;20056;-61
2023/03/09 10:36:06;;;;;;;4.22;0.90;;;15.00;54.70;;;;;;5059993;28;20024;-62
2023/03/09 10:38:33;;;;;;;3.40;0.70;;;15.00;53.80;;;;;;5061217;28;20059;-62
2023/03/09 10:40:58;;;;;;;2.53;0.70;;;14.90;54.60;;;;;;5068420;28;20094;-62
2023/03/09 10:43:30;;;;;;;4.28;0.73;;;14.90;55.00;;;;;;5061308;28;20028;-62
2023/03/09 10:46:14;;;;;;;3.85;0.82;;;14.90;55.20;;;;;;5058358;28;20029;-62
2023/03/09 10:48:40;;;;;;;1.70;0.80;;;14.90;54.50;;;;;;5051506;28;20395;-62
2023/03/09 10:51:39;;;;;;;1.80;0.68;;;15.00;55.10;;;;;;5054780;28;20503;-62
2023/03/09 10:54:14;;;;;;;1.65;0.70;;;15.00;55.00;;;;;;5059415;28;20032;-62
2023/03/09 10:56:44;;;;;;;2.58;0.70;;;15.00;54.00;;;;;;5063111;28;20041;-61
2023/03/09 10:59:19;;;;;;;3.90;1.00;;;15.00;54.20;;;;;;5062903;28;20082;-61
2023/03/09 11:01:48;;;;;;;1.55;0.70;;;15.00;53.40;;;;;;5062216;28;20028;-61
2023/03/09 11:04:25;;;;;;;5.45;1.23;;;15.10;54.10;;;;;;5059352;28;20025;-62
2023/03/09 11:07:04;;;;;;;3.53;0.90;;;15.10;53.60;;;;;;5063684;28;20524;-63
2023/03/09 11:09:47;;;;;;;2.65;0.80;;;15.20;54.30;;;;;;5060891;28;20112;-62
2023/03/09 11:12:49;;;;;;;6.63;1.08;;;15.30;54.20;;;;;;5063639;28;20045;-62
2023/03/09 11:15:15;;;;;;;4.63;1.00;;;15.40;53.60;;;;;;5053768;28;20047;-64
2023/03/09 11:17:42;;;;;;;3.33;1.00;;;15.50;53.70;;;;;;5070518;28;20037;-61
2023/03/09 11:20:19;;;;;;;4.00;0.98;;;15.60;53.00;;;;;;5064903;28;20036;-62
2023/03/09 11:23:05;;;;;;;3.92;1.00;;;15.70;53.30;;;;;;5072373;28;20024;-63
2023/03/09 11:25:52;;;;;;;3.40;1.10;;;15.80;52.60;;;;;;5061935;28;20029;-62
2023/03/09 11:28:57;;;;;;;2.08;0.77;;;15.80;51.90;;;;;;5068155;28;20020;-62
2023/03/09 11:31:40;;;;;;;2.38;0.80;;;15.80;52.10;;;;;;5061893;28;20056;-63
2023/03/09 11:34:12;;;;;;;2.58;0.90;;;15.80;52.40;;;;;;5064259;28;20086;-63
2023/03/09 11:36:44;;;;;;;2.40;0.90;;;15.70;52.50;;;;;;5064330;28;20055;-62
2023/03/09 11:39:25;;;;;;;7.28;1.17;;;15.80;53.00;;;;;;5065788;28;20025;-62
2023/03/09 11:41:53;;;;;;;3.50;1.08;;;15.80;52.70;;;;;;5060246;28;20051;-62
2023/03/09 11:44:39;;;;;;;3.97;1.10;;;15.90;52.30;;;;;;5072350;28;20079;-62
2023/03/09 11:47:17;;;;;;;3.33;0.98;;;16.00;51.70;;;;;;5064598;28;20024;-62
2023/03/09 11:49:43;;;;;;;3.90;1.10;;;16.00;50.80;;;;;;5064533;28;20399;-62
2023/03/09 11:52:18;;;;;;;3.50;1.08;;;16.10;52.00;;;;;;5067846;28;20065;-64
2023/03/09 11:54:47;;;;;;;3.95;0.90;;;16.10;51.90;;;;;;5070584;28;20521;-62
2023/03/09 11:57:16;;;;;;;4.93;1.00;;;16.10;51.10;;;;;;5066204;28;20040;-62
2023/03/09 11:59:52;;;;;;;3.13;1.10;;;16.10;51.40;;;;;;5068708;28;20103;-63
2023/03/09 12:02:20;;;;;;;7.28;1.08;;;16.20;51.90;;;;;;5066841;28;20066;-63
2023/03/09 12:04:51;;;;;;;3.65;1.33;;;16.30;50.60;;;;;;5071944;28;20043;-63
2023/03/09 12:07:37;;;;;;;6.13;1.25;;;16.30;50.70;;;;;;5067630;28;20029;-63
2023/03/09 12:10:15;;;;;;;4.28;1.10;;;16.30;50.10;;;;;;5065888;28;20024;-64
2023/03/09 12:13:05;;;;;;;10.75;1.25;;;16.40;49.80;;;;;;5061087;28;20021;-62
2023/03/09 12:15:59;;;;;;;8.30;0.95;;;16.40;49.50;;;;;;5067765;28;20107;-62
2023/03/09 12:18:29;;;;;;;3.33;1.10;;;16.50;49.20;;;;;;5064483;28;20064;-62
2023/03/09 12:20:58;;;;;;;9.15;1.48;;;16.50;49.20;;;;;;5071568;28;20052;-62
2023/03/09 12:23:36;;;;;;;3.72;1.10;;;16.40;48.50;;;;;;5063066;28;20031;-64
2023/03/09 12:26:18;;;;;;;2.53;0.82;;;16.40;49.40;;;;;;5060313;28;20028;-62
2023/03/09 12:29:13;;;;;;;2.45;1.13;;;16.40;48.70;;;;;;5071479;28;20471;-62
2023/03/09 12:31:39;;;;;;;3.40;1.35;;;16.40;48.90;;;;;;5065097;28;20136;-62
2023/03/09 12:34:24;;;;;;;4.93;1.20;;;16.30;48.80;;;;;;5064553;28;20052;-62
2023/03/09 12:36:50;;;;;;;;;;;16.30;48.70;;;;;;5063951;28;20037;-62
2023/03/09 12:39:25;;;;;;;3.70;1.00;;;16.40;49.70;;;;;;5066816;28;19912;-62
2023/03/09 12:42:28;;;;;;;6.65;1.30;;;16.30;48.90;;;;;;5069514;28;20027;-62
2023/03/09 12:44:58;;;;;;;4.00;1.10;;;16.20;49.20;;;;;;5066517;28;20096;-62
2023/03/09 12:48:11;;;;;;;3.22;1.00;;;16.20;48.70;;;;;;5069511;28;20029;-63
2023/03/09 12:50:42;;;;;;;3.13;1.02;;;16.10;49.20;;;;;;5037530;28;20029;-63
2023/03/09 12:53:13;;;;;;;4.03;1.00;;;16.10;49.50;;;;;;5021408;28;20087;-63
2023/03/09 12:55:39;;;;;;;2.25;1.08;;;16.10;49.70;;;;;;5047320;28;20061;-63
2023/03/09 12:58:22;;;;;;;3.33;1.00;;;16.00;49.60;;;;;;5036520;28;20049;-62